Time;durP1;ratioP1;P1;durP2;ratioP2;P2;SDS_P1;SDS_P2;PMS_P1;PMS_P2;Temp;Humidity;BMP_temperature;BMP_pressure;BME280_temperature;BME280_humidity;BME280_pressure;Samples;Min_cycle;Max_cycle;Signal;HPM_P1;HPM_P2
2023/01/27 00:00:56;;;;;;;13.63;7.40;;;;;;;;;;4815396;29;20056;-88
2023/01/27 00:03:23;;;;;;;12.57;8.20;;;;;;;;;;4815903;29;20399;-88
2023/01/27 00:05:49;;;;;;;11.50;7.18;;;;;;;;;;4829939;29;20060;-87
2023/01/27 00:08:16;;;;;;;16.92;7.85;;;;;;;;;;4830660;29;20128;-87
2023/01/27 00:10:42;;;;;;;14.52;7.97;;;;;;;;;;4815776;29;20049;-91
2023/01/27 00:13:30;;;;;;;11.85;7.28;;;;;;;;;;4830422;29;20046;-87
2023/01/27 00:15:57;;;;;;;16.65;8.68;;;;;;;;;;4845658;29;20053;-86
2023/01/27 00:18:23;;;;;;;12.10;6.50;;;;;;;;;;4829974;29;20045;-88
2023/01/27 00:26:19;;;;;;;10.25;5.90;;;;;;;;;;4832476;29;20093;-89
2023/01/27 00:28:45;;;;;;;13.50;5.95;;;;;;;;;;4814945;29;20091;-87
2023/01/27 00:34:07;;;;;;;13.48;7.07;;;;;;;;;;4845336;29;20078;-89
2023/01/27 00:36:33;;;;;;;10.00;6.55;;;;;;;;;;4830013;29;20049;-88
2023/01/27 00:38:59;;;;;;;11.05;6.25;;;;;;;;;;4815827;29;20049;-90
2023/01/27 00:41:27;;;;;;;9.40;6.28;;;;;;;;;;4829889;29;20046;-88
2023/01/27 00:43:53;;;;;;;8.43;5.85;;;;;;;;;;4815097;29;20495;-88
2023/01/27 00:46:21;;;;;;;10.60;5.90;;;;;;;;;;4829999;29;20042;-90
2023/01/27 00:48:47;;;;;;;8.13;5.35;;;;;;;;;;4844892;29;20046;-88
2023/01/27 00:51:13;;;;;;;14.60;6.15;;;;;;;;;;4845270;29;20137;-88
2023/01/27 00:53:40;;;;;;;9.77;5.45;;;;;;;;;;4830077;29;20074;-87
2023/01/27 00:56:06;;;;;;;9.98;5.90;;;;;;;;;;4830031;29;20049;-90
2023/01/27 00:58:32;;;;;;;7.82;5.32;;;;;;;;;;4814677;29;20065;-90
2023/01/27 01:00:59;;;;;;;12.55;5.03;;;;;;;;;;4830263;29;20053;-89
2023/01/27 01:03:30;;;;;;;9.63;5.80;;;;;;;;;;4829966;29;20114;-88
2023/01/27 01:05:57;;;;;;;15.98;4.90;;;;;;;;;;4830049;29;20078;-88
2023/01/27 01:08:23;;;;;;;8.95;5.03;;;;;;;;;;4829786;29;20072;-88
2023/01/27 01:10:49;;;;;;;7.20;5.40;;;;;;;;;;4829559;29;20045;-87
2023/01/27 01:13:15;;;;;;;10.68;5.40;;;;;;;;;;4829644;29;20054;-87
2023/01/27 01:15:41;;;;;;;8.23;5.00;;;;;;;;;;4844976;29;20061;-89
2023/01/27 01:18:09;;;;;;;7.75;5.35;;;;;;;;;;4829442;29;20459;-88
2023/01/27 01:20:36;;;;;;;9.93;4.95;;;;;;;;;;4829923;29;20097;-89
2023/01/27 01:23:02;;;;;;;9.02;5.22;;;;;;;;;;4844841;29;20133;-88
2023/01/27 01:25:28;;;;;;;12.23;6.10;;;;;;;;;;4829632;29;20094;-88
2023/01/27 01:27:54;;;;;;;7.97;5.68;;;;;;;;;;4829393;29;20046;-87
2023/01/27 01:30:20;;;;;;;8.43;5.72;;;;;;;;;;4844487;29;20164;-89
2023/01/27 01:32:47;;;;;;;8.77;5.65;;;;;;;;;;4844741;29;20072;-87
2023/01/27 01:35:13;;;;;;;12.02;6.63;;;;;;;;;;4814224;29;20045;-88
2023/01/27 01:37:39;;;;;;;8.20;5.68;;;;;;;;;;4829673;29;20045;-92
2023/01/27 01:40:07;;;;;;;9.50;6.25;;;;;;;;;;4829307;29;20053;-87
2023/01/27 01:43:05;;;;;;;8.15;5.25;;;;;;;;;;4829220;29;20098;-88
2023/01/27 01:45:35;;;;;;;17.08;5.30;;;;;;;;;;4780353;29;20053;-87
2023/01/27 01:48:28;;;;;;;11.88;4.68;;;;;;;;;;4844284;29;20089;-89
2023/01/27 01:50:54;;;;;;;9.35;4.45;;;;;;;;;;4840656;29;20049;-87
2023/01/27 01:53:26;;;;;;;8.57;5.22;;;;;;;;;;4829243;29;20053;-88
2023/01/27 01:55:52;;;;;;;10.20;5.35;;;;;;;;;;4828878;29;20049;-90
2023/01/27 01:58:19;;;;;;;8.93;4.75;;;;;;;;;;4828911;29;20053;-87
2023/01/27 02:00:46;;;;;;;9.82;5.82;;;;;;;;;;4813824;29;20052;-87
2023/01/27 02:03:12;;;;;;;9.52;4.60;;;;;;;;;;4829054;29;20042;-88
2023/01/27 02:05:41;;;;;;;13.07;5.70;;;;;;;;;;4828581;29;20081;-86
2023/01/27 02:08:10;;;;;;;14.15;4.63;;;;;;;;;;4829135;29;20049;-87
2023/01/27 02:10:36;;;;;;;8.70;4.30;;;;;;;;;;4828793;29;20057;-87
2023/01/27 02:13:02;;;;;;;7.65;3.55;;;;;;;;;;4813892;29;20049;-87
2023/01/27 02:15:29;;;;;;;12.05;4.10;;;;;;;;;;4843888;29;20081;-87
2023/01/27 02:17:56;;;;;;;5.93;3.28;;;;;;;;;;4828371;29;20045;-86
2023/01/27 02:20:31;;;;;;;7.68;5.25;;;;;;;;;;4828749;29;20049;-86
2023/01/27 02:23:22;;;;;;;7.07;3.75;;;4.00;99.90;;;;;;4845195;29;20526;-88
2023/01/27 02:25:59;;;;;;;6.78;3.60;;;;;;;;;;4840955;29;20145;-89
2023/01/27 02:28:29;;;;;;;6.47;3.28;;;;;;;;;;4846051;29;20057;-88
2023/01/27 02:30:56;;;;;;;13.10;4.05;;;;;;;;;;4832100;29;20042;-88
2023/01/27 02:33:22;;;;;;;5.97;3.05;;;;;;;;;;4816649;29;20061;-89
2023/01/27 02:35:48;;;;;;;4.90;2.83;;;;;;;;;;4832050;29;20046;-88
2023/01/27 02:38:15;;;;;;;5.82;3.20;;;;;;;;;;4831960;29;20487;-89
2023/01/27 02:40:42;;;;;;;6.15;2.60;;;;;;;;;;4831739;29;20063;-88
2023/01/27 02:43:08;;;;;;;6.45;2.67;;;;;;;;;;4832244;29;20041;-91
2023/01/27 02:45:34;;;;;;;5.38;2.58;;;;;;;;;;4816850;29;20082;-88
2023/01/27 02:48:00;;;;;;;5.55;2.38;;;;;;;;;;4832020;29;20052;-89
2023/01/27 02:50:26;;;;;;;6.95;2.20;;;;;;;;;;4832063;29;20189;-88
2023/01/27 02:52:52;;;;;;;7.72;2.30;;;;;;;;;;4846960;29;20045;-87
2023/01/27 02:55:18;;;;;;;6.75;3.00;;;;;;;;;;4831439;29;20491;-90
2023/01/27 02:57:44;;;;;;;4.53;2.58;;;;;;;;;;4816410;29;20132;-90
2023/01/27 03:00:12;;;;;;;8.20;2.60;;;;;;;;;;4816562;29;20045;-90
2023/01/27 03:02:38;;;;;;;4.68;1.73;;;;;;;;;;4831799;29;20045;-91
2023/01/27 03:05:04;;;;;;;8.45;1.90;;;;;;;;;;4816583;29;20053;-88
2023/01/27 03:07:30;;;;;;;3.03;2.17;;;;;;;;;;4846631;29;20052;-88
2023/01/27 03:09:57;;;;;;;2.28;1.80;;;;;;;;;;4831397;29;20558;-88
2023/01/27 03:12:23;;;;;;;7.32;1.88;;;;;;;;;;4831425;29;20595;-90
2023/01/27 03:20:21;;;;;;;2.55;1.58;;;;;;;;;;4846406;29;20050;-87
2023/01/27 03:22:47;;;;;;;2.20;1.40;;;;;;;;;;4816664;29;20396;-89
2023/01/27 03:25:13;;;;;;;5.53;3.10;;;;;;;;;;4846831;29;20436;-90
2023/01/27 03:27:39;;;;;;;4.18;1.77;;;;;;;;;;4816507;29;20049;-90
2023/01/27 03:30:06;;;;;;;3.92;1.92;;;;;;;;;;4831206;29;20049;-87
2023/01/27 03:32:33;;;;;;;5.10;1.85;;;;;;;;;;4831165;29;20045;-90
2023/01/27 03:35:00;;;;;;;2.92;1.70;;;;;;;;;;4830885;29;20060;-87
2023/01/27 03:48:33;;;;;;;4.45;1.42;;;;;;;;;;4846800;29;20073;-87
2023/01/27 03:50:59;;;;;;;1.63;1.30;;;;;;;;;;4831434;29;20128;-87
2023/01/27 03:53:25;;;;;;;3.30;1.95;;;;;;;;;;4830817;29;20045;-89
2023/01/27 03:55:51;;;;;;;6.68;1.52;;;;;;;;;;4845849;29;20089;-88
2023/01/27 03:58:21;;;;;;;3.22;1.50;;;;;;;;;;4830358;29;20053;-88
2023/01/27 04:00:49;;;;;;;2.80;1.48;;;;;;;;;;4830627;29;20521;-87
2023/01/27 04:08:51;;;;;;;15.85;1.75;;;;;;;;;;4845651;29;20057;-89
2023/01/27 04:14:04;;;;;;;3.38;2.03;;;;;;;;;;4845622;29;20140;-87
2023/01/27 04:16:30;;;;;;;13.73;2.70;;;;;;;;;;4815643;29;20057;-88
2023/01/27 04:18:56;;;;;;;8.32;1.75;;;;;;;;;;4830246;29;20049;-86
2023/01/27 04:21:24;;;;;;;1.40;1.30;;;;;;;;;;4845748;29;20049;-87
2023/01/27 04:23:50;;;;;;;2.92;1.88;;;;;;;;;;4830365;29;20452;-87
2023/01/27 04:26:17;;;;;;;1.52;1.42;;;;;;;;;;4830114;29;20567;-87
2023/01/27 04:28:43;;;;;;;3.10;1.30;;;;;;;;;;4830033;29;20082;-87
2023/01/27 04:31:09;;;;;;;1.95;1.25;;;;;;;;;;4814799;29;20050;-87
2023/01/27 04:33:35;;;;;;;5.65;1.52;;;;;;;;;;4830117;29;20050;-87
2023/01/27 04:36:01;;;;;;;3.92;1.70;;;;;;;;;;4814577;29;20132;-87
2023/01/27 04:38:27;;;;;;;3.63;1.75;;;;;;;;;;4829863;29;20061;-87
2023/01/27 04:40:53;;;;;;;2.70;1.58;;;;;;;;;;4814963;29;20057;-87
2023/01/27 04:43:19;;;;;;;4.53;1.60;;;;;;;;;;4815155;29;20053;-87
2023/01/27 04:45:45;;;;;;;3.78;2.35;;;;;;;;;;4830395;29;20141;-88
2023/01/27 04:48:11;;;;;;;5.05;2.08;;;;;;;;;;4830256;29;20053;-87
2023/01/27 04:50:37;;;;;;;3.13;1.90;;;;;;;;;;4815435;29;20076;-90
2023/01/27 04:53:03;;;;;;;2.65;1.70;;;;;;;;;;4830403;29;20113;-91
2023/01/27 04:55:29;;;;;;;3.33;2.60;;;;;;;;;;4815138;29;20044;-88
2023/01/27 04:57:55;;;;;;;3.90;1.73;;;;;;;;;;4829646;29;20061;-89
2023/01/27 05:00:21;;;;;;;1.90;1.80;;;;;;;;;;4829908;29;20057;-87
2023/01/27 05:02:47;;;;;;;3.00;1.67;;;;;;;;;;4829880;29;20399;-87
2023/01/27 05:05:13;;;;;;;2.15;1.52;;;;;;;;;;4829864;29;20197;-87
2023/01/27 05:07:39;;;;;;;5.03;2.40;;;;;;;;;;4829587;29;20110;-87
2023/01/27 05:10:06;;;;;;;2.42;1.70;;;;;;;;;;4845519;29;20407;-88
2023/01/27 05:12:32;;;;;;;4.20;1.70;;;;;;;;;;4829749;29;20049;-88
2023/01/27 05:14:59;;;;;;;3.28;1.20;;;;;;;;;;4830222;29;20049;-88
2023/01/27 05:17:29;;;;;;;4.35;2.10;;;;;;;;;;4845175;29;20069;-91
2023/01/27 05:19:55;;;;;;;1.50;1.40;;;;;;;;;;4844806;29;20105;-90
2023/01/27 05:22:21;;;;;;;2.75;1.70;;;;;;;;;;4829917;29;20065;-92
2023/01/27 05:24:47;;;;;;;3.35;1.80;;;;;;;;;;4814528;29;20045;-88
2023/01/27 05:27:13;;;;;;;5.78;1.70;;;;;;;;;;4814523;29;20503;-91
2023/01/27 05:29:40;;;;;;;2.42;1.65;;;;;;;;;;4829668;29;20046;-87
2023/01/27 05:32:06;;;;;;;4.38;2.38;;;;;;;;;;4829679;29;20092;-87
2023/01/27 05:34:32;;;;;;;4.30;1.70;;;;;;;;;;4829758;29;20088;-90
2023/01/27 05:36:58;;;;;;;4.80;2.33;;;;;;;;;;4829335;29;20045;-89
2023/01/27 05:39:24;;;;;;;3.33;1.60;;;;;;;;;;4829464;29;20053;-89
2023/01/27 05:41:50;;;;;;;3.38;1.52;;;;;;;;;;4829493;29;20053;-90
2023/01/27 05:44:16;;;;;;;3.45;1.70;;;;;;;;;;4830604;29;20045;-90
2023/01/27 05:46:42;;;;;;;2.30;1.80;;;;;;;;;;4814203;29;20045;-90
2023/01/27 05:49:08;;;;;;;3.90;1.60;;;;;;;;;;4829741;29;20085;-90
2023/01/27 05:51:40;;;;;;;3.03;1.48;;;;;;;;;;4829407;29;20069;-90
2023/01/27 05:54:10;;;;;;;2.45;1.80;;;;;;;;;;4830804;29;20056;-91
2023/01/27 05:56:36;;;;;;;2.63;1.60;;;;;;;;;;4829576;29;20108;-90
2023/01/27 05:59:02;;;;;;;3.05;1.88;;;;;;;;;;4814147;29;20419;-89
2023/01/27 06:01:30;;;;;;;4.65;1.90;;;;;;;;;;4814294;29;20046;-91
2023/01/27 06:03:56;;;;;;;3.67;2.10;;;;;;;;;;4830258;29;20132;-90
2023/01/27 06:06:23;;;;;;;4.13;2.17;;;;;;;;;;4832599;29;20050;-91
2023/01/27 06:08:49;;;;;;;2.15;1.73;;;;;;;;;;4848234;29;20053;-91
2023/01/27 06:11:16;;;;;;;5.47;2.33;;;;;;;;;;4832842;29;20049;-89
2023/01/27 06:13:43;;;;;;;4.60;2.35;;;;;;;;;;4833169;29;20467;-91
2023/01/27 06:16:10;;;;;;;2.85;1.95;;;;;;;;;;4818486;29;20053;-89
2023/01/27 06:18:36;;;;;;;3.97;2.03;;;;;;;;;;4835228;29;20050;-90
2023/01/27 06:21:03;;;;;;;4.13;2.30;;;;;;;;;;4851788;29;20183;-91
2023/01/27 06:23:30;;;;;;;3.15;1.60;;;;;;;;;;4836212;29;20418;-91
2023/01/27 06:25:56;;;;;;;1.33;1.23;;;;;;;;;;4819372;29;20205;-87
2023/01/27 06:28:22;;;;;;;3.88;1.67;;;;;;;;;;4818117;29;20137;-87
2023/01/27 06:30:49;;;;;;;6.07;2.75;;;;;;;;;;4848991;29;20101;-87
2023/01/27 06:33:15;;;;;;;1.90;1.60;;;;;;;;;;4848635;29;20053;-89
2023/01/27 06:35:41;;;;;;;1.95;1.45;;;;;;;;;;4817350;29;20053;-88
2023/01/27 06:38:08;;;;;;;3.25;1.70;;;;;;;;;;4832206;29;20052;-88
2023/01/27 06:40:35;;;;;;;1.92;1.45;;;;;;;;;;4832336;29;20457;-88
2023/01/27 06:43:01;;;;;;;5.28;1.70;;;;;;;;;;4817076;29;20128;-87
2023/01/27 06:45:27;;;;;;;4.65;1.38;;;;;;;;;;4847428;29;20060;-88
2023/01/27 06:47:55;;;;;;;4.78;1.60;;;;;;;;;;4832187;29;20132;-87
2023/01/27 06:50:21;;;;;;;3.63;1.17;;;;;;;;;;4847691;29;20096;-87
2023/01/27 06:52:47;;;;;;;2.40;2.03;;;;;;;;;;4847869;29;20050;-90
2023/01/27 06:55:14;;;;;;;5.45;1.92;;;;;;;;;;4831957;29;20156;-88
2023/01/27 06:57:40;;;;;;;6.10;2.38;;;;;;;;;;4831902;29;20057;-88
2023/01/27 07:00:07;;;;;;;2.15;1.73;;;;;;;;;;4846732;29;20072;-87
2023/01/27 07:02:33;;;;;;;6.93;1.85;;;;;;;;;;4831457;29;20049;-88
2023/01/27 07:04:59;;;;;;;3.58;1.88;;;;;;;;;;4816560;29;20143;-87
2023/01/27 07:07:25;;;;;;;4.05;1.88;;;;;;;;;;4816343;29;20521;-89
2023/01/27 07:09:51;;;;;;;2.97;2.25;;;;;;;;;;4817350;29;20392;-90
2023/01/27 07:16:17;;;;;;;;;;;3.40;99.90;;;;;;4863871;29;20105;-87
2023/01/27 07:22:25;;;;;;;4.38;1.52;;;;;;;;;;4863023;29;20068;-87
2023/01/27 07:24:51;;;;;;;1.88;1.67;;;;;;;;;;4830998;29;20049;-88
2023/01/27 07:27:17;;;;;;;8.40;2.17;;;;;;;;;;4831262;29;20050;-88
2023/01/27 07:29:44;;;;;;;2.30;1.45;;;;;;;;;;4830736;29;20102;-87
2023/01/27 07:32:10;;;;;;;9.85;1.73;;;;;;;;;;4830855;29;20074;-88
2023/01/27 07:34:36;;;;;;;6.40;1.60;;;;;;;;;;4830610;29;20075;-87
2023/01/27 07:37:04;;;;;;;1.85;1.75;;;;;;;;;;4846402;29;20464;-88
2023/01/27 07:39:30;;;;;;;5.65;1.17;;;;;;;;;;4830518;29;20054;-87
2023/01/27 07:41:57;;;;;;;1.60;1.40;;;;;;;;;;4816296;29;20052;-91
2023/01/27 07:44:23;;;;;;;1.52;1.42;;;;;;;;;;4831293;29;20053;-87
2023/01/27 07:46:50;;;;;;;2.30;1.40;;;;;;;;;;4830722;29;20385;-88
2023/01/27 07:49:16;;;;;;;3.42;1.60;;;;;;;;;;4831189;29;20061;-87
2023/01/27 07:51:42;;;;;;;2.72;1.67;;;;;;;;;;4846187;29;20049;-92
2023/01/27 07:54:08;;;;;;;3.00;1.77;;;;;;;;;;4816013;29;20435;-92
2023/01/27 07:56:35;;;;;;;3.72;1.70;;;;;;;;;;4816209;29;20049;-92
2023/01/27 07:59:01;;;;;;;4.32;2.50;;;;;;;;;;4819010;29;20062;-88
2023/01/27 08:01:27;;;;;;;4.53;2.30;;;;;;;;;;4849232;29;20054;-87
2023/01/27 08:03:53;;;;;;;9.90;3.00;;;;;;;;;;4848388;29;20061;-88
2023/01/27 08:06:19;;;;;;;7.85;2.88;;;;;;;;;;4815191;29;20045;-87
2023/01/27 08:08:46;;;;;;;8.88;3.42;;;;;;;;;;4830346;29;20392;-88
2023/01/27 08:11:13;;;;;;;18.58;3.88;;;;;;;;;;4815138;29;20046;-91
2023/01/27 08:13:39;;;;;;;5.10;2.97;;;;;;;;;;4830958;29;20052;-91
2023/01/27 08:16:07;;;;;;;5.72;2.10;;;;;;;;;;4861978;29;20049;-91
2023/01/27 08:18:34;;;;;;;3.47;1.95;;;;;;;;;;4845409;29;20053;-91
2023/01/27 08:24:41;;;;;;;4.60;2.00;;;;;;;;;;4864628;29;20059;-87
2023/01/27 08:27:08;;;;;;;4.15;2.65;;;;;;;;;;4816504;29;20088;-89
2023/01/27 08:29:34;;;;;;;7.57;2.40;;;;;;;;;;4831988;29;20053;-90
2023/01/27 08:32:00;;;;;;;6.65;2.15;;;;;;;;;;4816537;29;20049;-90
2023/01/27 08:34:26;;;;;;;3.55;1.92;;;;;;;;;;4831717;29;20148;-88
2023/01/27 08:36:53;;;;;;;3.42;1.88;;;;;;;;;;4831108;29;20082;-88
2023/01/27 08:39:19;;;;;;;5.00;1.90;;;;;;;;;;4831084;29;20084;-88
2023/01/27 08:41:45;;;;;;;7.75;2.80;;;;;;;;;;4846243;29;20132;-89
2023/01/27 08:44:11;;;;;;;2.78;2.15;;;;;;;;;;4830890;29;20057;-88
2023/01/27 08:46:37;;;;;;;5.10;2.22;;;;;;;;;;4830626;29;20141;-90
2023/01/27 08:49:06;;;;;;;3.60;1.77;;;;;;;;;;4830502;29;20082;-88
2023/01/27 08:51:40;;;;;;;4.85;1.67;;;;;;;;;;4831130;29;20464;-92
2023/01/27 08:54:06;;;;;;;;;;;3.70;99.90;;;;;;4830736;29;20049;-89
2023/01/27 08:56:32;;;;;;;10.07;2.40;;;;;;;;;;4830016;29;20018;-89
2023/01/27 08:58:59;;;;;;;4.50;2.15;;;;;;;;;;4845334;29;20109;-89
2023/01/27 09:01:25;;;;;;;4.25;2.03;;;;;;;;;;4845207;29;20058;-88
2023/01/27 09:03:52;;;;;;;4.57;1.80;;;;;;;;;;4845199;29;20053;-88
2023/01/27 09:06:20;;;;;;;9.32;2.17;;;;;;;;;;4830035;29;20483;-90
2023/01/27 09:09:29;;;;;;;4.55;1.70;;;;;;;;;;4830375;29;20416;-91
2023/01/27 09:11:37;;;;;;;5.03;2.00;;;;;;;;;;4840353;29;20060;-92
2023/01/27 09:14:03;;;;;;;4.60;2.05;;;;;;;;;;4831176;29;20451;-91
2023/01/27 09:16:29;;;;;;;3.17;1.70;;;;;;;;;;4830426;29;20061;-89
2023/01/27 09:18:57;;;;;;;3.05;2.20;;;;;;;;;;4846053;29;20124;-89
2023/01/27 09:21:23;;;;;;;1.85;1.73;;;;;;;;;;4845251;29;20057;-91
2023/01/27 09:23:49;;;;;;;4.18;2.13;;;;;;;;;;4831428;29;20057;-88
2023/01/27 09:26:15;;;;;;;8.27;1.90;;;;;;;;;;4832929;29;20045;-88
2023/01/27 09:28:41;;;;;;;10.00;3.22;;;;;;;;;;4849515;29;20053;-88
2023/01/27 09:31:08;;;;;;;4.13;2.42;;;;;;;;;;4816105;29;20057;-89
2023/01/27 09:33:35;;;;;;;4.10;2.05;;;;;;;;;;4830145;29;20050;-91
2023/01/27 09:36:04;;;;;;;6.38;2.63;;;;;;;;;;4830010;29;20056;-91
2023/01/27 09:38:32;;;;;;;5.10;1.75;;;;;;;;;;4831466;29;20094;-89
2023/01/27 09:41:17;;;;;;;5.45;2.03;;;;;;;;;;4833498;29;20075;-88
2023/01/27 09:43:52;;;;;;;8.60;2.00;;;;;;;;;;4833377;29;20042;-88
2023/01/27 09:46:18;;;;;;;7.90;2.45;;;;;;;;;;4848780;29;20081;-88
2023/01/27 09:48:57;;;;;;;4.03;2.22;;;;;;;;;;4848670;29;20046;-89
2023/01/27 09:51:29;;;;;;;4.78;2.80;;;;;;;;;;4833685;29;20144;-88
2023/01/27 09:53:55;;;;;;;10.65;2.58;;;;;;;;;;4848606;29;20491;-89
2023/01/27 09:56:21;;;;;;;5.65;1.88;;;;;;;;;;4833269;29;20136;-89
2023/01/27 09:59:06;;;;;;;2.08;1.60;;;;;;;;;;4832852;29;20058;-89
2023/01/27 10:02:08;;;;;;;5.22;2.00;;;;;;;;;;4833247;29;20148;-89
2023/01/27 10:04:37;;;;;;;7.90;2.45;;;;;;;;;;4757061;30;20094;-88
2023/01/27 10:07:32;;;;;;;5.13;2.17;;;4.30;99.90;;;;;;4831713;29;20403;-88
2023/01/27 10:23:33;;;;;;;2.20;2.00;;;;;;;;;;4848506;29;20109;-92
2023/01/27 10:26:37;;;;;;;4.03;1.65;;;;;;;;;;4834180;29;20065;-91
2023/01/27 10:29:13;;;;;;;4.30;1.42;;;;;;;;;;4815901;29;20060;-88
2023/01/27 10:32:05;;;;;;;4.57;2.55;;;;;;;;;;4834145;29;20049;-91
2023/01/27 10:34:35;;;;;;;3.50;1.88;;;;;;;;;;4835723;29;20132;-89
2023/01/27 10:43:54;;;;;;;2.55;1.70;;;;;;;;;;4872326;29;20574;-89
2023/01/27 10:46:26;;;;;;;1.40;1.30;;;;;;;;;;4840528;29;20056;-89
2023/01/27 10:49:22;;;;;;;2.60;1.52;;;4.60;99.90;;;;;;4840114;29;20136;-88
2023/01/27 10:52:10;;;;;;;2.42;1.30;;;;;;;;;;4850495;29;20045;-88
2023/01/27 10:58:11;;;;;;;4.63;1.40;;;;;;;;;;4863594;29;20113;-88
2023/01/27 11:00:49;;;;;;;0.90;0.90;;;;;;;;;;4848236;29;20057;-91
2023/01/27 11:03:27;;;;;;;0.80;0.80;;;;;;;;;;4847690;29;20056;-89
2023/01/27 11:06:03;;;;;;;1.33;1.00;;;;;;;;;;4832621;29;20057;-92
2023/01/27 11:08:30;;;;;;;0.93;0.93;;;;;;;;;;4847544;29;20053;-88
2023/01/27 11:13:45;;;;;;;1.30;1.00;;;;;;;;;;4847794;29;20108;-89
2023/01/27 11:16:14;;;;;;;1.50;1.38;;;;;;;;;;4847322;29;20046;-87
2023/01/27 11:18:42;;;;;;;1.05;0.95;;;;;;;;;;4832496;29;20579;-90
2023/01/27 11:21:28;;;;;;;1.00;1.00;;;;;;;;;;4864758;29;20081;-89
2023/01/27 11:23:55;;;;;;;1.15;1.13;;;;;;;;;;4832524;29;20056;-88
2023/01/27 11:26:36;;;;;;;2.65;1.20;;;;;;;;;;4847951;29;20057;-88
2023/01/27 11:29:09;;;;;;;1.83;1.45;;;;;;;;;;4847622;29;20056;-87
2023/01/27 11:31:44;;;;;;;2.05;1.75;;;;;;;;;;4847756;29;20057;-88
2023/01/27 11:34:18;;;;;;;2.20;2.00;;;;;;;;;;4833535;29;20053;-87
2023/01/27 11:36:45;;;;;;;1.92;1.70;;;;;;;;;;4863598;29;20407;-86
2023/01/27 11:39:12;;;;;;;2.03;1.90;;;;;;;;;;4832018;29;20430;-86
2023/01/27 11:41:40;;;;;;;5.28;2.58;;;;;;;;;;4831939;29;20422;-87
2023/01/27 11:44:15;;;;;;;3.30;2.10;;;;;;;;;;4847491;29;20064;-87
2023/01/27 11:50:37;;;;;;;4.47;2.42;;;;;;;;;;4865922;29;20109;-90
2023/01/27 11:53:04;;;;;;;3.53;2.92;;;;;;;;;;4847772;29;20049;-86
2023/01/27 11:55:38;;;;;;;3.25;2.42;;;;;;;;;;4863003;29;20061;-88
2023/01/27 11:58:23;;;;;;;3.55;2.78;;;;;;;;;;4831007;29;20046;-90
2023/01/27 12:00:54;;;;;;;2.95;2.65;;;;;;;;;;4831049;29;20046;-89
2023/01/27 12:03:26;;;;;;;3.33;2.95;;;;;;;;;;4862181;29;20053;-89
2023/01/27 12:05:59;;;;;;;4.63;2.83;;;;;;;;;;4831018;29;20056;-88
2023/01/27 12:08:39;;;;;;;2.90;2.58;;;;;;;;;;4862873;29;20129;-89
2023/01/27 12:11:17;;;;;;;2.97;2.70;;;;;;;;;;4830984;29;20046;-89
2023/01/27 12:13:51;;;;;;;3.45;2.58;;;;;;;;;;4846535;29;20136;-90
2023/01/27 12:16:17;;;;;;;8.07;3.45;;;;;;;;;;4831954;29;20066;-86
2023/01/27 12:18:49;;;;;;;3.38;2.80;;;;;;;;;;4846965;29;20132;-86
2023/01/27 12:21:15;;;;;;;4.90;3.15;;;;;;;;;;4831011;29;20086;-88
2023/01/27 12:23:49;;;;;;;3.88;2.70;;;;;;;;;;4862610;29;20097;-87
2023/01/27 12:26:16;;;;;;;4.10;3.15;;;;;;;;;;4830796;29;20101;-88
2023/01/27 12:28:42;;;;;;;4.53;3.70;;;;;;;;;;4862723;29;20128;-86
2023/01/27 12:31:10;;;;;;;4.53;3.20;;;;;;;;;;4830627;29;20053;-90
2023/01/27 12:33:37;;;;;;;3.25;2.85;;;;;;;;;;4862619;29;20435;-87
2023/01/27 12:36:12;;;;;;;3.80;3.38;;;;;;;;;;4846495;29;20049;-88
2023/01/27 12:38:43;;;;;;;3.70;2.90;;;;;;;;;;4845317;29;20060;-87
2023/01/27 12:41:11;;;;;;;4.25;3.85;;;;;;;;;;4830506;29;20088;-89
2023/01/27 12:43:51;;;;;;;7.25;4.35;;;;;;;;;;4830524;29;20052;-89
2023/01/27 12:46:28;;;;;;;4.28;3.20;;;;;;;;;;4862112;29;20076;-90
2023/01/27 12:49:04;;;;;;;5.68;4.40;;;;;;;;;;4829839;29;20273;-91
2023/01/27 12:51:42;;;;;;;4.07;3.58;;;;;;;;;;4845348;29;20060;-89
2023/01/27 12:54:26;;;;;;;4.47;4.07;;;;;;;;;;4845152;29;20052;-91
2023/01/27 12:56:53;;;;;;;4.82;3.97;;;;;;;;;;4829695;29;20057;-88
2023/01/27 12:59:20;;;;;;;5.97;3.85;;;;;;;;;;4820569;29;20148;-86
2023/01/27 13:02:14;;;;;;;4.93;3.90;;;;;;;;;;4826780;29;20129;-90
2023/01/27 13:04:41;;;;;;;;;;;;;;;;;;4827531;29;20053;-90
2023/01/27 13:07:12;;;;;;;3.42;3.05;;;;;;;;;;4842826;29;20038;-89
2023/01/27 13:09:40;;;;;;;4.97;3.40;;;;;;;;;;4796841;29;20053;-86
2023/01/27 13:12:23;;;;;;;3.38;3.08;;;;;;;;;;4826441;29;20085;-88
2023/01/27 13:14:51;;;;;;;3.35;3.05;;;;;;;;;;4811176;29;20046;-86
2023/01/27 13:17:35;;;;;;;3.45;3.15;;;;;;;;;;4811280;29;20049;-87
2023/01/27 13:20:04;;;;;;;3.38;3.05;;;;;;;;;;4826551;29;20050;-86
2023/01/27 13:22:36;;;;;;;3.80;3.20;;;;;;;;;;4843047;29;20416;-89
2023/01/27 13:25:02;;;;;;;3.50;3.15;;;;;;;;;;4811461;29;20062;-91
2023/01/27 13:27:32;;;;;;;3.55;2.80;;;;;;;;;;4826707;29;20049;-90
2023/01/27 13:30:02;;;;;;;7.50;3.03;;;;;;;;;;4811398;29;20046;-89
2023/01/27 13:32:31;;;;;;;4.05;3.40;;;;;;;;;;4826431;29;20054;-87
2023/01/27 13:35:15;;;;;;;3.75;3.35;;;;;;;;;;4826748;29;20058;-86
2023/01/27 13:37:45;;;;;;;4.15;3.08;;;;;;;;;;4842374;29;20057;-85
2023/01/27 13:40:24;;;;;;;3.47;3.10;;;;;;;;;;4826480;29;20103;-85
2023/01/27 13:42:55;;;;;;;4.80;4.03;;;;;;;;;;4843587;29;20060;-86
2023/01/27 13:45:23;;;;;;;4.65;3.78;;;;;;;;;;4828574;29;20136;-93
2023/01/27 13:47:55;;;;;;;5.15;3.13;;;;;;;;;;4811238;29;20054;-90
2023/01/27 13:50:24;;;;;;;4.00;3.05;;;;;;;;;;4826813;29;20046;-88
2023/01/27 13:52:52;;;;;;;7.63;3.25;;;;;;;;;;4826245;29;20098;-89
2023/01/27 13:55:41;;;;;;;3.65;3.30;;;;;;;;;;4826827;29;20050;-90
2023/01/27 13:58:32;;;;;;;3.78;3.17;;;4.30;99.90;;;;;;4821594;29;20054;-87
2023/01/27 14:01:04;;;;;;;3.30;3.00;;;;;;;;;;4837390;29;20419;-89
2023/01/27 14:03:38;;;;;;;3.35;3.05;;;;;;;;;;4845295;29;20053;-87
2023/01/27 14:06:20;;;;;;;3.80;3.50;;;;;;;;;;4829384;29;20144;-89
2023/01/27 14:09:07;;;;;;;3.33;3.03;;;;;;;;;;4861332;29;20069;-87
2023/01/27 14:11:56;;;;;;;3.22;3.03;;;3.90;99.90;;;;;;4815341;29;20065;-89
2023/01/27 14:14:33;;;;;;;3.70;3.40;;;;;;;;;;4861022;29;20085;-87
2023/01/27 14:17:15;;;;;;;4.68;3.90;;;;;;;;;;4837075;29;20049;-89
2023/01/27 14:19:41;;;;;;;4.00;3.60;;;;;;;;;;4844450;29;20056;-89
2023/01/27 14:22:22;;;;;;;3.90;3.55;;;;;;;;;;4861076;29;20403;-87
2023/01/27 14:24:58;;;;;;;3.65;3.15;;;;;;;;;;4861197;29;20128;-87
2023/01/27 14:27:30;;;;;;;3.58;3.17;;;;;;;;;;4831960;29;20109;-87
2023/01/27 14:30:04;;;;;;;3.28;2.97;;;;;;;;;;4832279;29;20053;-88
2023/01/27 14:32:54;;;;;;;6.25;3.25;;;;;;;;;;4832410;29;20102;-90
2023/01/27 14:35:31;;;;;;;2.80;2.60;;;;;;;;;;4835812;29;20133;-89
2023/01/27 14:38:36;;;;;;;3.63;3.33;;;;;;;;;;4847316;29;20116;-91
2023/01/27 14:52:30;;;;;;;;;;;;;;;;;;;;;
2023/01/27 14:55:05;;;;;;;5.47;3.13;;;;;;;;;;4777369;30;20057;-91
2023/01/27 14:57:54;;;;;;;3.65;3.35;;;;;;;;;;4774568;30;20051;-92
2023/01/27 15:04:44;;;;;;;4.75;3.45;;;;;;;;;;4871008;29;20088;-91
2023/01/27 17:27:38;;;;;;;1.75;1.65;;;;;;;;;;4874558;24;20579;-91
2023/01/27 17:30:25;;;;;;;1.73;1.63;;;;;;;;;;4787505;29;20066;-87
2023/01/27 17:32:54;;;;;;;3.70;2.33;;;;;;;;;;4829020;29;20051;-86
2023/01/27 17:35:22;;;;;;;2.75;2.00;;;;;;;;;;4823718;29;20050;-88
2023/01/27 17:37:49;;;;;;;2.17;2.00;;;;;;;;;;4808194;29;20046;-86
2023/01/27 17:40:17;;;;;;;2.03;1.92;;;;;;;;;;4808298;29;20118;-89
2023/01/27 17:42:44;;;;;;;4.35;2.95;;;;;;;;;;4824172;29;20055;-87
2023/01/27 17:45:43;;;;;;;3.60;3.10;;;;;;;;;;4825544;29;20054;-86
2023/01/27 17:48:10;;;;;;;5.18;3.30;;;;;;;;;;4795269;29;20121;-86
2023/01/27 17:50:37;;;;;;;5.40;4.13;;;;;;;;;;4794122;29;20058;-86
2023/01/27 17:53:06;;;;;;;6.28;4.10;;;;;;;;;;4808860;29;20146;-90
2023/01/27 17:55:36;;;;;;;6.90;3.63;;;;;;;;;;4825432;29;20062;-86
2023/01/27 17:58:04;;;;;;;3.63;3.33;;;;;;;;;;4809099;29;20134;-89
2023/01/27 18:00:33;;;;;;;3.03;2.72;;;;;;;;;;4825497;29;20057;-88
2023/01/27 18:03:02;;;;;;;4.78;3.05;;;;;;;;;;4827052;29;20054;-88
2023/01/27 18:05:29;;;;;;;4.07;3.55;;;;;;;;;;4812754;29;20058;-88
2023/01/27 18:07:56;;;;;;;4.60;3.60;;;;;;;;;;4827431;29;20054;-87
2023/01/27 18:10:24;;;;;;;4.57;3.35;;;;;;;;;;4812365;29;20046;-86
2023/01/27 18:12:50;;;;;;;7.07;3.95;;;;;;;;;;4812189;29;20078;-86
2023/01/27 18:15:39;;;;;;;4.00;3.42;;;3.50;99.90;;;;;;4813459;29;20094;-89
2023/01/27 18:18:18;;;;;;;6.05;3.60;;;;;;;;;;4827989;29;20050;-87
2023/01/27 18:20:45;;;;;;;4.40;2.63;;;;;;;;;;4812056;29;20065;-88
2023/01/27 18:23:19;;;;;;;4.03;2.97;;;;;;;;;;4812657;29;20058;-90
2023/01/27 18:25:49;;;;;;;5.45;2.85;;;;;;;;;;4828296;29;20057;-85
2023/01/27 18:28:19;;;;;;;4.10;3.10;;;;;;;;;;4827708;29;20051;-86
2023/01/27 18:30:47;;;;;;;4.25;2.83;;;;;;;;;;4811697;29;20047;-86
2023/01/27 18:33:13;;;;;;;3.92;3.53;;;;;;;;;;4828291;29;20059;-86
2023/01/27 18:35:41;;;;;;;3.53;3.13;;;;;;;;;;4812049;29;20058;-88
2023/01/27 18:38:21;;;;;;;5.15;3.70;;;;;;;;;;4828280;29;20046;-88
2023/01/27 18:40:47;;;;;;;3.83;3.22;;;;;;;;;;4811286;29;20090;-86
2023/01/27 18:43:14;;;;;;;4.43;4.03;;;;;;;;;;4811429;29;20050;-86
2023/01/27 18:45:41;;;;;;;5.53;3.92;;;;;;;;;;4811101;29;20080;-85
2023/01/27 18:48:14;;;;;;;5.97;4.70;;;;;;;;;;4826201;29;20656;-85